Portada
METAR-TAF:

METAR-TAF

Aeroports :

Derby Field

Lovelock, Nevada, Estats Units d'Amèrica

latitud: 40-03-59N, longitud: 118-33-55W, altitud: 1190 m

Observació

L'informe es va fer fa 42 minuts, a les 14:53 UTC
Vent calma
Temperatura -9°C
Humitat 48%
Pressió 1031 hPa
Visibilitat: 16.1 km
Cel clar

METAR: KLOL 261453Z AUTO 00000KT 10SM CLR M09/M18 A3045 RMK AO2 SLP335 T10891178 53003

Hora: 07:35 (15:35 UTC)


TAF: manca

Observacions i pronòstics meteorològics de més de 4000 aeroports (METAR i TAF).

Les estacions disponibles són els punts grocs i vermells al mapa.

Posi el ratolí al punt desitjat per veure el nom de l'estació.

Feu clic per veure les observacions i els pronòstics meteorològics.

Per canviar el mapa: feu clic els botons verds amb una creu de color negre per apropar; al botó verd amb un guió per allunyar la imatge; o en les fletxes verdes per a mapes adjacents.


METAR-TAF: